Time;durP1;ratioP1;P1;durP2;ratioP2;P2;SDS_P1;SDS_P2;PMS_P1;PMS_P2;Temp;Humidity;BMP_temperature;BMP_pressure;BME280_temperature;BME280_humidity;BME280_pressure;Samples;Min_cycle;Max_cycle;Signal;HPM_P1;HPM_P2
2023/06/04 00:08:42;;;;;;;;;;;19.40;65.60;;;;;;20838521;28;19929;-55
2023/06/04 00:18:43;;;;;;;;;;;19.30;65.60;;;;;;20837486;28;19925;-54
2023/06/04 00:28:43;;;;;;;;;;;19.30;65.30;;;;;;20838274;28;19929;-56
2023/06/04 00:38:44;;;;;;;;;;;19.20;64.90;;;;;;20837859;28;20004;-56
2023/06/04 00:48:45;;;;;;;;;;;19.20;64.60;;;;;;20837004;28;19925;-56
2023/06/04 00:58:46;;;;;;;;;;;19.20;64.80;;;;;;20835766;28;20321;-55
2023/06/04 01:08:54;;;;;;;;;;;19.20;64.90;;;;;;20835564;28;19924;-55
2023/06/04 01:18:58;;;;;;;;;;;19.20;65.10;;;;;;20834263;28;19937;-54
2023/06/04 01:28:59;;;;;;;;;;;19.10;65.40;;;;;;20832809;28;19925;-55
2023/06/04 01:39:00;;;;;;;;;;;19.10;65.80;;;;;;20833609;28;19931;-54
2023/06/04 01:49:01;;;;;;;;;;;19.00;66.30;;;;;;20831337;28;20019;-55
2023/06/04 01:59:02;;;;;;;;;;;19.10;66.50;;;;;;20830822;28;19965;-54
2023/06/04 02:09:03;;;;;;;;;;;19.00;66.90;;;;;;20831628;28;20364;-55
2023/06/04 02:19:04;;;;;;;;;;;19.00;67.00;;;;;;20829819;28;19976;-55
2023/06/04 02:29:05;;;;;;;;;;;19.00;67.10;;;;;;20829397;28;19972;-56
2023/06/04 02:39:05;;;;;;;;;;;19.10;67.00;;;;;;20830468;28;20266;-55
2023/06/04 02:49:06;;;;;;;;;;;19.10;66.70;;;;;;20828966;28;19933;-55
2023/06/04 02:59:09;;;;;;;;;;;19.00;66.50;;;;;;20829497;28;20466;-55
2023/06/04 03:09:09;;;;;;;;;;;18.90;66.60;;;;;;20828362;28;19925;-55
2023/06/04 03:19:11;;;;;;;;;;;18.90;66.90;;;;;;20827812;28;19968;-55
2023/06/04 03:29:11;;;;;;;;;;;18.80;67.00;;;;;;20842403;28;19978;-56
2023/06/04 03:39:12;;;;;;;;;;;18.80;67.30;;;;;;20841444;28;20011;-56
2023/06/04 03:49:13;;;;;;;;;;;18.70;67.70;;;;;;20840202;28;19931;-55
2023/06/04 03:59:14;;;;;;;;;;;18.70;67.10;;;;;;20839848;28;20007;-55
2023/06/04 04:09:14;;;;;;;;;;;18.50;66.80;;;;;;20838776;28;19975;-55
2023/06/04 04:19:15;;;;;;;;;;;18.50;66.80;;;;;;20837867;28;20358;-55
2023/06/04 04:29:16;;;;;;;;;;;18.40;66.90;;;;;;20837486;28;20078;-56
2023/06/04 04:39:16;;;;;;;;;;;18.40;66.60;;;;;;20835718;28;20370;-54
2023/06/04 04:49:17;;;;;;;;;;;18.20;69.10;;;;;;20835824;28;20003;-56
2023/06/04 04:59:18;;;;;;;;;;;17.90;70.40;;;;;;20836493;28;20453;-55
2023/06/04 05:09:18;;;;;;;;;;;17.80;70.90;;;;;;20835485;28;20377;-54
2023/06/04 05:19:19;;;;;;;;;;;17.70;70.70;;;;;;20833581;28;19925;-55
2023/06/04 05:29:20;;;;;;;;;;;17.70;71.00;;;;;;20833848;28;20290;-54
2023/06/04 05:39:23;;;;;;;;;;;17.60;71.50;;;;;;20833531;28;19971;-56
2023/06/04 05:49:24;;;;;;;;;;;17.70;71.30;;;;;;20832501;28;19931;-55
2023/06/04 05:59:25;;;;;;;;;;;17.90;70.20;;;;;;20832345;28;19929;-56
2023/06/04 06:09:26;;;;;;;;;;;18.20;68.60;;;;;;20831516;28;20017;-55
2023/06/04 06:19:27;;;;;;;;;;;18.30;68.40;;;;;;20829871;28;20024;-54
2023/06/04 06:29:27;;;;;;;;;;;18.40;67.40;;;;;;20830468;28;20359;-55
2023/06/04 06:39:28;;;;;;;;;;;18.60;66.70;;;;;;20829844;28;20377;-54
2023/06/04 06:49:28;;;;;;;;;;;18.80;65.10;;;;;;20830060;28;20396;-54
2023/06/04 06:59:29;;;;;;;;;;;18.90;64.70;;;;;;20838094;28;19970;-55
2023/06/04 07:09:30;;;;;;;;;;;19.00;64.50;;;;;;20843439;28;19925;-56
2023/06/04 07:19:30;;;;;;;;;;;19.00;64.00;;;;;;20841952;28;19932;-56
2023/06/04 07:29:31;;;;;;;;;;;19.20;63.50;;;;;;20842184;28;20406;-56
2023/06/04 07:39:32;;;;;;;;;;;19.30;63.00;;;;;;20840838;28;20043;-56
2023/06/04 07:49:32;;;;;;;;;;;19.50;62.20;;;;;;20839555;28;19925;-57
2023/06/04 07:59:33;;;;;;;;;;;19.70;61.40;;;;;;20840217;28;20294;-55
2023/06/04 08:09:34;;;;;;;;;;;20.00;60.70;;;;;;20837968;28;19932;-56
2023/06/04 08:19:34;;;;;;;;;;;20.10;60.50;;;;;;20837725;28;20381;-55
2023/06/04 08:29:36;;;;;;;;;;;20.20;58.90;;;;;;20837762;28;19932;-55
2023/06/04 08:39:37;;;;;;;;;;;20.30;58.80;;;;;;20835670;28;19929;-56
2023/06/04 08:49:40;;;;;;;;;;;20.40;58.90;;;;;;20836209;28;20404;-56
2023/06/04 08:59:41;;;;;;;;;;;20.60;58.60;;;;;;20835389;28;19931;-57
2023/06/04 09:09:43;;;;;;;;;;;20.70;58.00;;;;;;20834117;28;19968;-55
2023/06/04 09:19:43;;;;;;;;;;;20.90;56.90;;;;;;20832441;28;19990;-56
2023/06/04 09:29:51;;;;;;;;;;;21.00;57.20;;;;;;20831684;28;20000;-55
2023/06/04 09:39:55;;;;;;;;;;;21.20;56.80;;;;;;20830915;28;19926;-55
2023/06/04 09:49:55;;;;;;;;;;;21.30;57.00;;;;;;20831978;28;19932;-56
2023/06/04 09:59:56;;;;;;;;;;;21.60;56.60;;;;;;20831072;28;19925;-57
2023/06/04 10:09:57;;;;;;;;;;;21.90;54.90;;;;;;20828530;28;19928;-57
2023/06/04 10:19:58;;;;;;;;;;;22.20;53.70;;;;;;20828073;28;19971;-56
2023/06/04 10:29:59;;;;;;;;;;;22.70;52.30;;;;;;20829878;28;19925;-56
2023/06/04 10:40:00;;;;;;;;;;;22.90;52.40;;;;;;20845204;28;19965;-55
2023/06/04 10:50:07;;;;;;;;;;;23.00;52.10;;;;;;20842836;28;19925;-56
2023/06/04 11:00:10;;;;;;;;;;;23.50;50.90;;;;;;20843226;28;19925;-55
2023/06/04 11:10:11;;;;;;;;;;;23.60;50.10;;;;;;20843136;28;20047;-56
2023/06/04 11:20:19;;;;;;;;;;;23.90;49.60;;;;;;20842734;28;19937;-55
2023/06/04 11:30:20;;;;;;;;;;;24.20;47.80;;;;;;20841513;28;19925;-55
2023/06/04 11:40:21;;;;;;;;;;;24.40;47.80;;;;;;20840400;28;19925;-56
2023/06/04 11:50:22;;;;;;;;;;;24.70;46.80;;;;;;20840355;28;19925;-56
2023/06/04 12:00:23;;;;;;;;;;;24.80;45.90;;;;;;20838405;28;20020;-55
2023/06/04 12:10:26;;;;;;;;;;;25.10;45.20;;;;;;20839152;28;20378;-56
2023/06/04 12:20:35;;;;;;;;;;;25.00;46.30;;;;;;20837900;28;19932;-56
2023/06/04 12:30:39;;;;;;;;;;;24.50;46.70;;;;;;20837349;28;19978;-54
2023/06/04 12:40:40;;;;;;;;;;;25.00;44.50;;;;;;20836352;28;20349;-56
2023/06/04 12:50:41;;;;;;;;;;;25.20;43.80;;;;;;20835886;28;19924;-57
2023/06/04 13:00:41;;;;;;;;;;;25.40;43.70;;;;;;20833120;28;19929;-57
2023/06/04 13:10:42;;;;;;;;;;;25.50;42.10;;;;;;20833702;28;19925;-57
2023/06/04 13:20:42;;;;;;;;;;;25.80;41.70;;;;;;20832793;28;19925;-57
2023/06/04 13:30:43;;;;;;;;;;;25.60;41.00;;;;;;20830746;28;19925;-56
2023/06/04 13:40:44;;;;;;;;;;;25.50;41.20;;;;;;20832339;28;20372;-56
2023/06/04 13:50:45;;;;;;;;;;;25.70;42.20;;;;;;20831732;28;20298;-58
2023/06/04 14:00:46;;;;;;;;;;;25.60;42.60;;;;;;20831535;28;19968;-56
2023/06/04 14:10:47;;;;;;;;;;;25.60;40.70;;;;;;20830522;28;20034;-56
2023/06/04 14:20:47;;;;;;;;;;;25.60;41.10;;;;;;20829722;28;19925;-56
2023/06/04 14:30:48;;;;;;;;;;;26.00;40.10;;;;;;20828774;28;19925;-56
2023/06/04 14:40:49;;;;;;;;;;;25.90;39.90;;;;;;20829076;28;20378;-57
2023/06/04 14:50:53;;;;;;;;;;;26.20;38.90;;;;;;20829168;28;19947;-57
2023/06/04 15:00:57;;;;;;;;;;;26.50;37.50;;;;;;20829552;28;20310;-57
2023/06/04 15:10:57;;;;;;;;;;;26.60;38.20;;;;;;20827700;28;19929;-57
2023/06/04 15:20:58;;;;;;;;;;;26.70;37.60;;;;;;20836919;28;19931;-56
2023/06/04 15:30:58;;;;;;;;;;;26.70;37.40;;;;;;20843464;28;20015;-58
2023/06/04 15:40:59;;;;;;;;;;;26.90;35.00;;;;;;20842377;28;19948;-56
2023/06/04 15:51:00;;;;;;;;;;;26.90;35.20;;;;;;20840258;28;19925;-56
2023/06/04 16:01:00;;;;;;;;;;;27.10;34.60;;;;;;20840066;28;19932;-58
2023/06/04 16:11:01;;;;;;;;;;;26.90;35.40;;;;;;20838959;28;19932;-59
2023/06/04 16:21:02;;;;;;;;;;;26.70;36.40;;;;;;20836800;28;19925;-57
2023/06/04 16:31:02;;;;;;;;;;;26.60;38.40;;;;;;20836132;28;19932;-56
2023/06/04 16:41:03;;;;;;;;;;;26.50;38.50;;;;;;20835764;28;19980;-58
2023/06/04 16:51:04;;;;;;;;;;;26.30;38.50;;;;;;20834768;28;19979;-57
2023/06/04 17:01:05;;;;;;;;;;;26.30;38.50;;;;;;20834319;28;19925;-57
2023/06/04 17:11:05;;;;;;;;;;;26.30;38.70;;;;;;20833682;28;19925;-56
2023/06/04 17:21:06;;;;;;;;;;;26.40;38.20;;;;;;20833305;28;19925;-56
2023/06/04 17:31:07;;;;;;;;;;;26.30;37.80;;;;;;20832096;28;20281;-56
2023/06/04 17:41:07;;;;;;;;;;;26.30;39.60;;;;;;20831135;28;19929;-58
2023/06/04 17:51:10;;;;;;;;;;;26.30;40.30;;;;;;20830853;28;20288;-58
2023/06/04 18:01:11;;;;;;;;;;;26.20;39.50;;;;;;20831581;28;19971;-56
2023/06/04 18:11:11;;;;;;;;;;;26.20;35.40;;;;;;20829153;28;19951;-56
2023/06/04 18:21:12;;;;;;;;;;;26.00;35.20;;;;;;20827330;28;20402;-57
2023/06/04 18:31:13;;;;;;;;;;;26.00;36.50;;;;;;20829129;28;20441;-56
2023/06/04 18:41:14;;;;;;;;;;;25.90;40.60;;;;;;20828798;28;19960;-57
2023/06/04 18:51:15;;;;;;;;;;;25.80;40.90;;;;;;20831027;28;19976;-57
2023/06/04 19:01:16;;;;;;;;;;;25.60;42.90;;;;;;20845278;28;19932;-57
2023/06/04 19:11:16;;;;;;;;;;;25.30;44.60;;;;;;20843337;28;19933;-56
2023/06/04 19:21:17;;;;;;;;;;;25.10;44.50;;;;;;20841754;28;19948;-58
2023/06/04 19:31:18;;;;;;;;;;;24.80;45.20;;;;;;20840478;28;19983;-56
2023/06/04 19:41:18;;;;;;;;;;;24.50;46.50;;;;;;20841395;28;20301;-56
2023/06/04 19:51:20;;;;;;;;;;;24.30;46.30;;;;;;20840488;28;19925;-57
2023/06/04 20:01:21;;;;;;;;;;;24.20;45.30;;;;;;20840346;28;20363;-56
2023/06/04 20:11:23;;;;;;;;;;;24.10;45.80;;;;;;20839551;28;19972;-58
2023/06/04 20:21:23;;;;;;;;;;;23.90;46.60;;;;;;20838154;28;19925;-56
2023/06/04 20:31:26;;;;;;;;;;;23.80;47.20;;;;;;20838430;28;19971;-57
2023/06/04 20:41:26;;;;;;;;;;;23.60;48.20;;;;;;20835651;28;19972;-57
2023/06/04 20:51:27;;;;;;;;;;;23.40;49.50;;;;;;20836028;28;19948;-56
2023/06/04 21:01:28;;;;;;;;;;;23.30;50.80;;;;;;20835896;28;19929;-56
2023/06/04 21:11:28;;;;;;;;;;;23.10;52.20;;;;;;20834316;28;19925;-58
2023/06/04 21:21:29;;;;;;;;;;;22.90;53.50;;;;;;20830866;28;19932;-56
2023/06/04 21:31:30;;;;;;;;;;;22.60;54.40;;;;;;20831574;28;19975;-58
2023/06/04 21:41:30;;;;;;;;;;;22.40;55.10;;;;;;20830763;28;19999;-57
2023/06/04 21:51:31;;;;;;;;;;;22.30;55.20;;;;;;20831634;28;20378;-57
2023/06/04 22:01:31;;;;;;;;;;;22.20;55.30;;;;;;20832586;28;20008;-56
2023/06/04 22:11:32;;;;;;;;;;;22.20;55.60;;;;;;20830489;28;20297;-58
2023/06/04 22:21:33;;;;;;;;;;;22.10;55.40;;;;;;20828810;28;19925;-57
2023/06/04 22:31:34;;;;;;;;;;;22.10;56.10;;;;;;20849515;28;19948;-58
2023/06/04 22:41:34;;;;;;;;;;;21.90;56.20;;;;;;20855339;28;20294;-60
2023/06/04 22:51:35;;;;;;;;;;;21.80;56.20;;;;;;20856425;28;19933;-57
2023/06/04 23:01:36;;;;;;;;;;;21.80;56.00;;;;;;20854049;28;19925;-56
2023/06/04 23:11:37;;;;;;;;;;;21.70;56.10;;;;;;20853634;28;19925;-56
2023/06/04 23:21:37;;;;;;;;;;;21.70;56.10;;;;;;20854084;28;20313;-56
2023/06/04 23:31:38;;;;;;;;;;;21.60;56.40;;;;;;20853506;28;19929;-57
2023/06/04 23:41:39;;;;;;;;;;;21.60;56.70;;;;;;20844633;28;19929;-57
2023/06/04 23:51:39;;;;;;;;;;;21.50;56.80;;;;;;20840946;28;20386;-56
